sensor_id;sensor_type;location;lat;lon;timestamp;temperature;humidity
31542;DHT22;18152;49.986;8.646;2023-10-08T00:02:00;15.50;99.90
31542;DHT22;18152;49.986;8.646;2023-10-08T00:04:26;15.50;99.90
31542;DHT22;18152;49.986;8.646;2023-10-08T00:06:52;15.50;99.90
31542;DHT22;18152;49.986;8.646;2023-10-08T00:09:18;15.40;99.90
31542;DHT22;18152;49.986;8.646;2023-10-08T00:11:46;15.40;99.90
31542;DHT22;18152;49.986;8.646;2023-10-08T00:14:17;15.40;99.90
31542;DHT22;18152;49.986;8.646;2023-10-08T00:16:47;15.40;99.90
31542;DHT22;18152;49.986;8.646;2023-10-08T00:19:15;15.50;99.90
31542;DHT22;18152;49.986;8.646;2023-10-08T00:21:43;15.50;99.90
31542;DHT22;18152;49.986;8.646;2023-10-08T00:24:10;15.50;99.90
31542;DHT22;18152;49.986;8.646;2023-10-08T00:26:37;15.60;99.90
31542;DHT22;18152;49.986;8.646;2023-10-08T00:29:06;15.60;99.90
31542;DHT22;18152;49.986;8.646;2023-10-08T00:31:45;15.60;99.90
31542;DHT22;18152;49.986;8.646;2023-10-08T00:34:11;15.50;99.90
31542;DHT22;18152;49.986;8.646;2023-10-08T00:36:40;15.50;99.90
31542;DHT22;18152;49.986;8.646;2023-10-08T00:39:07;15.50;99.90
31542;DHT22;18152;49.986;8.646;2023-10-08T00:41:38;15.50;99.90
31542;DHT22;18152;49.986;8.646;2023-10-08T00:44:07;15.50;99.90
31542;DHT22;18152;49.986;8.646;2023-10-08T00:46:33;15.60;99.90
31542;DHT22;18152;49.986;8.646;2023-10-08T00:49:08;15.60;99.90
31542;DHT22;18152;49.986;8.646;2023-10-08T00:52:13;15.60;99.90
31542;DHT22;18152;49.986;8.646;2023-10-08T00:54:41;15.60;99.90
31542;DHT22;18152;49.986;8.646;2023-10-08T00:57:31;15.60;99.90
31542;DHT22;18152;49.986;8.646;2023-10-08T01:00:02;15.60;99.90
31542;DHT22;18152;49.986;8.646;2023-10-08T01:02:31;15.60;99.90
31542;DHT22;18152;49.986;8.646;2023-10-08T01:05:13;15.60;99.90
31542;DHT22;18152;49.986;8.646;2023-10-08T01:07:41;15.60;99.90
31542;DHT22;18152;49.986;8.646;2023-10-08T01:10:10;15.60;99.90
31542;DHT22;18152;49.986;8.646;2023-10-08T01:12:36;15.50;99.90
31542;DHT22;18152;49.986;8.646;2023-10-08T01:15:10;15.50;99.90
31542;DHT22;18152;49.986;8.646;2023-10-08T01:17:41;15.60;99.90
31542;DHT22;18152;49.986;8.646;2023-10-08T01:20:16;15.60;99.90
31542;DHT22;18152;49.986;8.646;2023-10-08T01:22:58;15.60;99.90
31542;DHT22;18152;49.986;8.646;2023-10-08T01:25:28;15.50;99.90
31542;DHT22;18152;49.986;8.646;2023-10-08T01:27:58;15.50;99.90
31542;DHT22;18152;49.986;8.646;2023-10-08T01:30:27;15.50;99.90
31542;DHT22;18152;49.986;8.646;2023-10-08T01:32:59;15.50;99.90
31542;DHT22;18152;49.986;8.646;2023-10-08T01:35:28;15.50;99.90
31542;DHT22;18152;49.986;8.646;2023-10-08T01:37:57;15.40;99.90
31542;DHT22;18152;49.986;8.646;2023-10-08T01:40:25;15.50;99.90
31542;DHT22;18152;49.986;8.646;2023-10-08T01:42:51;15.50;99.90
31542;DHT22;18152;49.986;8.646;2023-10-08T01:45:17;15.50;99.90
31542;DHT22;18152;49.986;8.646;2023-10-08T01:47:44;15.50;99.90
31542;DHT22;18152;49.986;8.646;2023-10-08T01:50:09;15.50;99.90
31542;DHT22;18152;49.986;8.646;2023-10-08T01:52:47;15.50;99.90
31542;DHT22;18152;49.986;8.646;2023-10-08T01:55:12;15.40;99.90
31542;DHT22;18152;49.986;8.646;2023-10-08T01:57:43;15.50;99.90
31542;DHT22;18152;49.986;8.646;2023-10-08T02:00:09;15.50;99.90
31542;DHT22;18152;49.986;8.646;2023-10-08T02:02:35;15.40;99.90
31542;DHT22;18152;49.986;8.646;2023-10-08T02:05:01;15.30;99.90
31542;DHT22;18152;49.986;8.646;2023-10-08T02:07:27;15.30;99.90
31542;DHT22;18152;49.986;8.646;2023-10-08T02:09:54;15.30;99.90
31542;DHT22;18152;49.986;8.646;2023-10-08T02:12:19;15.20;99.90
31542;DHT22;18152;49.986;8.646;2023-10-08T02:14:45;15.10;99.90
31542;DHT22;18152;49.986;8.646;2023-10-08T02:17:10;15.00;99.90
31542;DHT22;18152;49.986;8.646;2023-10-08T02:19:38;15.00;99.90
31542;DHT22;18152;49.986;8.646;2023-10-08T02:22:04;15.00;99.90
31542;DHT22;18152;49.986;8.646;2023-10-08T02:24:35;15.00;99.90
31542;DHT22;18152;49.986;8.646;2023-10-08T02:27:01;15.00;99.90
31542;DHT22;18152;49.986;8.646;2023-10-08T02:29:29;15.00;99.90
31542;DHT22;18152;49.986;8.646;2023-10-08T02:31:56;15.00;99.90
31542;DHT22;18152;49.986;8.646;2023-10-08T02:34:22;15.10;99.90
31542;DHT22;18152;49.986;8.646;2023-10-08T02:36:48;15.00;99.90
31542;DHT22;18152;49.986;8.646;2023-10-08T02:39:14;15.10;99.90
31542;DHT22;18152;49.986;8.646;2023-10-08T02:41:43;15.00;99.90
31542;DHT22;18152;49.986;8.646;2023-10-08T02:44:13;15.00;99.90
31542;DHT22;18152;49.986;8.646;2023-10-08T02:46:42;15.00;99.90
31542;DHT22;18152;49.986;8.646;2023-10-08T02:49:10;15.00;99.90
31542;DHT22;18152;49.986;8.646;2023-10-08T02:51:38;14.90;99.90
31542;DHT22;18152;49.986;8.646;2023-10-08T02:54:05;14.80;99.90
31542;DHT22;18152;49.986;8.646;2023-10-08T02:56:32;14.70;99.90
31542;DHT22;18152;49.986;8.646;2023-10-08T02:58:58;14.70;99.90
31542;DHT22;18152;49.986;8.646;2023-10-08T03:01:25;14.70;99.90
31542;DHT22;18152;49.986;8.646;2023-10-08T03:03:51;14.70;99.90
31542;DHT22;18152;49.986;8.646;2023-10-08T03:06:27;14.70;99.90
31542;DHT22;18152;49.986;8.646;2023-10-08T03:08:52;14.70;99.90
31542;DHT22;18152;49.986;8.646;2023-10-08T03:11:18;14.70;99.90
31542;DHT22;18152;49.986;8.646;2023-10-08T03:13:47;14.80;99.90
31542;DHT22;18152;49.986;8.646;2023-10-08T03:16:17;14.70;99.90
31542;DHT22;18152;49.986;8.646;2023-10-08T03:18:46;14.70;99.90
31542;DHT22;18152;49.986;8.646;2023-10-08T03:21:15;14.70;99.90
31542;DHT22;18152;49.986;8.646;2023-10-08T03:23:58;14.70;99.90
31542;DHT22;18152;49.986;8.646;2023-10-08T03:26:24;14.60;99.90
31542;DHT22;18152;49.986;8.646;2023-10-08T03:28:56;14.60;99.90
31542;DHT22;18152;49.986;8.646;2023-10-08T03:31:23;14.60;99.90
31542;DHT22;18152;49.986;8.646;2023-10-08T03:34:10;14.60;99.90
31542;DHT22;18152;49.986;8.646;2023-10-08T03:36:38;14.60;99.90
31542;DHT22;18152;49.986;8.646;2023-10-08T03:39:16;14.50;99.90
31542;DHT22;18152;49.986;8.646;2023-10-08T03:41:44;14.50;99.90
31542;DHT22;18152;49.986;8.646;2023-10-08T03:44:23;14.40;99.90
31542;DHT22;18152;49.986;8.646;2023-10-08T03:46:49;14.50;99.90
31542;DHT22;18152;49.986;8.646;2023-10-08T03:49:18;14.40;99.90
31542;DHT22;18152;49.986;8.646;2023-10-08T03:51:46;14.30;99.90
31542;DHT22;18152;49.986;8.646;2023-10-08T03:54:13;14.30;99.90
31542;DHT22;18152;49.986;8.646;2023-10-08T03:56:42;14.30;99.90
31542;DHT22;18152;49.986;8.646;2023-10-08T03:59:15;14.20;99.90
31542;DHT22;18152;49.986;8.646;2023-10-08T04:02:01;14.30;99.90
31542;DHT22;18152;49.986;8.646;2023-10-08T04:04:43;14.20;99.90
31542;DHT22;18152;49.986;8.646;2023-10-08T04:07:20;14.20;99.90
31542;DHT22;18152;49.986;8.646;2023-10-08T04:09:59;14.20;99.90
31542;DHT22;18152;49.986;8.646;2023-10-08T04:12:44;14.10;99.90
31542;DHT22;18152;49.986;8.646;2023-10-08T04:15:13;14.10;99.90
31542;DHT22;18152;49.986;8.646;2023-10-08T04:17:41;14.10;99.90
31542;DHT22;18152;49.986;8.646;2023-10-08T04:20:14;14.20;99.90
31542;DHT22;18152;49.986;8.646;2023-10-08T04:23:00;14.30;99.90
31542;DHT22;18152;49.986;8.646;2023-10-08T04:25:26;14.20;99.90
31542;DHT22;18152;49.986;8.646;2023-10-08T04:27:54;14.30;99.90
31542;DHT22;18152;49.986;8.646;2023-10-08T04:30:26;14.30;99.90
31542;DHT22;18152;49.986;8.646;2023-10-08T04:33:04;14.30;99.90
31542;DHT22;18152;49.986;8.646;2023-10-08T04:35:37;14.30;99.90
31542;DHT22;18152;49.986;8.646;2023-10-08T04:38:06;14.30;99.90
31542;DHT22;18152;49.986;8.646;2023-10-08T04:40:34;14.20;99.90
31542;DHT22;18152;49.986;8.646;2023-10-08T04:43:07;14.30;99.90
31542;DHT22;18152;49.986;8.646;2023-10-08T04:45:36;14.30;99.90
31542;DHT22;18152;49.986;8.646;2023-10-08T04:48:04;14.30;99.90
31542;DHT22;18152;49.986;8.646;2023-10-08T04:50:35;14.30;99.90
31542;DHT22;18152;49.986;8.646;2023-10-08T04:53:03;14.30;99.90
31542;DHT22;18152;49.986;8.646;2023-10-08T04:55:34;14.30;99.90
31542;DHT22;18152;49.986;8.646;2023-10-08T04:58:00;14.30;99.90
31542;DHT22;18152;49.986;8.646;2023-10-08T05:00:31;14.30;99.90
31542;DHT22;18152;49.986;8.646;2023-10-08T05:03:08;14.20;99.90
31542;DHT22;18152;49.986;8.646;2023-10-08T05:05:40;14.20;99.90
31542;DHT22;18152;49.986;8.646;2023-10-08T05:08:27;14.20;99.90
31542;DHT22;18152;49.986;8.646;2023-10-08T05:11:13;14.30;99.90
31542;DHT22;18152;49.986;8.646;2023-10-08T05:13:50;14.20;99.90
31542;DHT22;18152;49.986;8.646;2023-10-08T05:16:31;14.20;99.90
31542;DHT22;18152;49.986;8.646;2023-10-08T05:19:10;14.10;99.90
31542;DHT22;18152;49.986;8.646;2023-10-08T05:21:56;14.10;99.90
31542;DHT22;18152;49.986;8.646;2023-10-08T05:24:44;14.10;99.90
31542;DHT22;18152;49.986;8.646;2023-10-08T05:27:29;14.20;99.90
31542;DHT22;18152;49.986;8.646;2023-10-08T05:30:28;14.20;99.90
31542;DHT22;18152;49.986;8.646;2023-10-08T05:33:08;14.20;99.90
31542;DHT22;18152;49.986;8.646;2023-10-08T05:35:40;14.10;99.90
31542;DHT22;18152;49.986;8.646;2023-10-08T05:38:11;14.10;99.90
31542;DHT22;18152;49.986;8.646;2023-10-08T05:40:55;14.10;99.90
31542;DHT22;18152;49.986;8.646;2023-10-08T05:43:24;14.10;99.90
31542;DHT22;18152;49.986;8.646;2023-10-08T05:46:19;14.20;99.90
31542;DHT22;18152;49.986;8.646;2023-10-08T05:48:58;14.20;99.90
31542;DHT22;18152;49.986;8.646;2023-10-08T05:51:42;14.10;99.90
31542;DHT22;18152;49.986;8.646;2023-10-08T06:02:28;14.20;99.90
31542;DHT22;18152;49.986;8.646;2023-10-08T06:07:36;14.20;99.90
31542;DHT22;18152;49.986;8.646;2023-10-08T06:10:14;14.10;99.90
31542;DHT22;18152;49.986;8.646;2023-10-08T06:13:06;14.10;99.90
31542;DHT22;18152;49.986;8.646;2023-10-08T06:15:40;14.20;99.90
31542;DHT22;18152;49.986;8.646;2023-10-08T06:18:29;14.20;99.90
31542;DHT22;18152;49.986;8.646;2023-10-08T06:20:55;14.20;99.90
31542;DHT22;18152;49.986;8.646;2023-10-08T06:23:21;14.20;99.90
31542;DHT22;18152;49.986;8.646;2023-10-08T06:25:49;14.30;99.90
31542;DHT22;18152;49.986;8.646;2023-10-08T06:28:19;14.40;99.90
31542;DHT22;18152;49.986;8.646;2023-10-08T06:30:50;14.40;99.90
31542;DHT22;18152;49.986;8.646;2023-10-08T06:33:20;14.40;99.90
31542;DHT22;18152;49.986;8.646;2023-10-08T06:35:50;14.30;99.90
31542;DHT22;18152;49.986;8.646;2023-10-08T06:38:32;14.40;99.90
31542;DHT22;18152;49.986;8.646;2023-10-08T06:41:01;14.40;99.90
31542;DHT22;18152;49.986;8.646;2023-10-08T06:43:40;14.40;99.90
31542;DHT22;18152;49.986;8.646;2023-10-08T06:46:12;14.50;99.90
31542;DHT22;18152;49.986;8.646;2023-10-08T06:48:39;14.40;99.90
31542;DHT22;18152;49.986;8.646;2023-10-08T06:51:08;14.50;99.90
31542;DHT22;18152;49.986;8.646;2023-10-08T06:53:41;14.40;99.90
31542;DHT22;18152;49.986;8.646;2023-10-08T06:56:07;14.50;99.90
31542;DHT22;18152;49.986;8.646;2023-10-08T06:58:36;14.50;99.90
31542;DHT22;18152;49.986;8.646;2023-10-08T07:01:02;14.50;99.90
31542;DHT22;18152;49.986;8.646;2023-10-08T07:03:31;14.50;99.90
31542;DHT22;18152;49.986;8.646;2023-10-08T07:05:57;14.70;99.90
31542;DHT22;18152;49.986;8.646;2023-10-08T07:08:31;14.70;99.90
31542;DHT22;18152;49.986;8.646;2023-10-08T07:10:58;14.80;99.90
31542;DHT22;18152;49.986;8.646;2023-10-08T07:13:26;14.80;99.90
31542;DHT22;18152;49.986;8.646;2023-10-08T07:15:55;14.90;99.90
31542;DHT22;18152;49.986;8.646;2023-10-08T07:18:21;15.00;99.90
31542;DHT22;18152;49.986;8.646;2023-10-08T07:20:54;15.00;99.90
31542;DHT22;18152;49.986;8.646;2023-10-08T07:23:22;15.20;99.90
31542;DHT22;18152;49.986;8.646;2023-10-08T07:28:22;15.50;99.90
31542;DHT22;18152;49.986;8.646;2023-10-08T07:30:51;15.40;99.90
31542;DHT22;18152;49.986;8.646;2023-10-08T07:33:18;15.40;99.90
31542;DHT22;18152;49.986;8.646;2023-10-08T07:35:45;15.40;99.90
31542;DHT22;18152;49.986;8.646;2023-10-08T07:38:20;15.30;99.90
31542;DHT22;18152;49.986;8.646;2023-10-08T07:40:47;15.40;99.90
31542;DHT22;18152;49.986;8.646;2023-10-08T07:43:13;15.40;99.90
31542;DHT22;18152;49.986;8.646;2023-10-08T07:45:40;15.30;99.90
31542;DHT22;18152;49.986;8.646;2023-10-08T07:48:10;15.30;99.90
31542;DHT22;18152;49.986;8.646;2023-10-08T07:50:44;15.40;99.90
31542;DHT22;18152;49.986;8.646;2023-10-08T07:53:12;15.30;99.90
31542;DHT22;18152;49.986;8.646;2023-10-08T07:55:47;15.40;99.90
31542;DHT22;18152;49.986;8.646;2023-10-08T07:58:16;15.50;99.90
31542;DHT22;18152;49.986;8.646;2023-10-08T08:00:42;15.50;99.90
31542;DHT22;18152;49.986;8.646;2023-10-08T08:03:18;15.50;99.90
31542;DHT22;18152;49.986;8.646;2023-10-08T08:05:43;15.50;99.90
31542;DHT22;18152;49.986;8.646;2023-10-08T08:08:09;15.50;99.90
31542;DHT22;18152;49.986;8.646;2023-10-08T08:10:35;15.50;99.90
31542;DHT22;18152;49.986;8.646;2023-10-08T08:13:04;15.50;99.90
31542;DHT22;18152;49.986;8.646;2023-10-08T08:15:32;15.60;99.90
31542;DHT22;18152;49.986;8.646;2023-10-08T08:17:58;15.70;99.90
31542;DHT22;18152;49.986;8.646;2023-10-08T08:20:24;15.70;99.90
31542;DHT22;18152;49.986;8.646;2023-10-08T08:23:00;15.80;99.90
31542;DHT22;18152;49.986;8.646;2023-10-08T08:25:38;15.90;99.90
31542;DHT22;18152;49.986;8.646;2023-10-08T08:28:23;16.30;99.90
31542;DHT22;18152;49.986;8.646;2023-10-08T08:30:51;16.40;99.90
31542;DHT22;18152;49.986;8.646;2023-10-08T08:33:21;16.60;99.90
31542;DHT22;18152;49.986;8.646;2023-10-08T08:36:00;16.40;99.90
31542;DHT22;18152;49.986;8.646;2023-10-08T08:38:26;16.40;99.90
31542;DHT22;18152;49.986;8.646;2023-10-08T08:41:02;16.50;99.90
31542;DHT22;18152;49.986;8.646;2023-10-08T08:43:35;16.50;99.90
31542;DHT22;18152;49.986;8.646;2023-10-08T08:46:04;16.40;99.90
31542;DHT22;18152;49.986;8.646;2023-10-08T08:48:36;16.20;99.90
31542;DHT22;18152;49.986;8.646;2023-10-08T08:51:03;16.20;99.90
31542;DHT22;18152;49.986;8.646;2023-10-08T08:53:32;16.20;99.90
31542;DHT22;18152;49.986;8.646;2023-10-08T08:55:59;16.30;99.90
31542;DHT22;18152;49.986;8.646;2023-10-08T08:58:33;16.50;99.90
31542;DHT22;18152;49.986;8.646;2023-10-08T09:00:59;16.50;99.90
31542;DHT22;18152;49.986;8.646;2023-10-08T09:03:26;16.60;99.90
31542;DHT22;18152;49.986;8.646;2023-10-08T09:05:57;16.90;99.90
31542;DHT22;18152;49.986;8.646;2023-10-08T09:08:24;17.20;99.90
31542;DHT22;18152;49.986;8.646;2023-10-08T09:10:52;17.40;99.90
31542;DHT22;18152;49.986;8.646;2023-10-08T09:13:26;17.80;99.90
31542;DHT22;18152;49.986;8.646;2023-10-08T09:15:52;18.40;99.90
31542;DHT22;18152;49.986;8.646;2023-10-08T09:18:19;19.00;99.90
31542;DHT22;18152;49.986;8.646;2023-10-08T09:20:46;19.20;99.90
31542;DHT22;18152;49.986;8.646;2023-10-08T09:23:14;19.50;99.90
31542;DHT22;18152;49.986;8.646;2023-10-08T09:25:45;19.30;99.90
31542;DHT22;18152;49.986;8.646;2023-10-08T09:28:11;19.70;99.90
31542;DHT22;18152;49.986;8.646;2023-10-08T09:30:40;19.40;99.90
31542;DHT22;18152;49.986;8.646;2023-10-08T09:33:10;19.20;99.90
31542;DHT22;18152;49.986;8.646;2023-10-08T09:35:36;18.90;99.90
31542;DHT22;18152;49.986;8.646;2023-10-08T09:38:08;18.80;99.90
31542;DHT22;18152;49.986;8.646;2023-10-08T09:40:36;18.90;99.90
31542;DHT22;18152;49.986;8.646;2023-10-08T09:43:03;19.00;99.90
31542;DHT22;18152;49.986;8.646;2023-10-08T09:45:30;19.20;99.90
31542;DHT22;18152;49.986;8.646;2023-10-08T09:47:56;19.50;99.90
31542;DHT22;18152;49.986;8.646;2023-10-08T09:50:32;19.70;99.90
31542;DHT22;18152;49.986;8.646;2023-10-08T09:55:33;19.70;99.90
31542;DHT22;18152;49.986;8.646;2023-10-08T09:57:59;19.70;99.90
31542;DHT22;18152;49.986;8.646;2023-10-08T10:00:26;19.60;99.90
31542;DHT22;18152;49.986;8.646;2023-10-08T10:03:02;19.60;99.90
31542;DHT22;18152;49.986;8.646;2023-10-08T10:05:32;19.70;99.90
31542;DHT22;18152;49.986;8.646;2023-10-08T10:08:02;19.70;99.90
31542;DHT22;18152;49.986;8.646;2023-10-08T10:10:32;19.60;99.90
31542;DHT22;18152;49.986;8.646;2023-10-08T10:13:03;19.50;99.90
31542;DHT22;18152;49.986;8.646;2023-10-08T10:15:31;19.70;99.90
31542;DHT22;18152;49.986;8.646;2023-10-08T10:20:59;19.40;99.90
31542;DHT22;18152;49.986;8.646;2023-10-08T10:23:35;19.40;99.90
31542;DHT22;18152;49.986;8.646;2023-10-08T10:26:21;19.40;99.90
31542;DHT22;18152;49.986;8.646;2023-10-08T10:31:39;19.30;99.90
31542;DHT22;18152;49.986;8.646;2023-10-08T10:34:09;19.60;99.90
31542;DHT22;18152;49.986;8.646;2023-10-08T10:36:35;19.50;99.90
31542;DHT22;18152;49.986;8.646;2023-10-08T10:39:01;19.60;99.90
31542;DHT22;18152;49.986;8.646;2023-10-08T10:41:49;19.70;99.90
31542;DHT22;18152;49.986;8.646;2023-10-08T10:44:16;19.60;99.90
31542;DHT22;18152;49.986;8.646;2023-10-08T10:46:42;19.70;99.90
31542;DHT22;18152;49.986;8.646;2023-10-08T10:49:09;20.00;99.90
31542;DHT22;18152;49.986;8.646;2023-10-08T10:51:50;20.10;99.90
31542;DHT22;18152;49.986;8.646;2023-10-08T10:54:25;20.20;99.90
31542;DHT22;18152;49.986;8.646;2023-10-08T10:56:52;20.20;99.90
31542;DHT22;18152;49.986;8.646;2023-10-08T10:59:42;20.10;99.90
31542;DHT22;18152;49.986;8.646;2023-10-08T11:09:54;20.20;99.90
31542;DHT22;18152;49.986;8.646;2023-10-08T11:12:20;20.40;99.90
31542;DHT22;18152;49.986;8.646;2023-10-08T11:14:57;20.50;99.90
31542;DHT22;18152;49.986;8.646;2023-10-08T11:17:25;21.10;99.90
31542;DHT22;18152;49.986;8.646;2023-10-08T11:19:52;21.30;99.90
31542;DHT22;18152;49.986;8.646;2023-10-08T11:22:18;21.60;99.90
31542;DHT22;18152;49.986;8.646;2023-10-08T11:24:48;21.60;99.90
31542;DHT22;18152;49.986;8.646;2023-10-08T11:27:18;21.30;99.90
31542;DHT22;18152;49.986;8.646;2023-10-08T11:29:55;21.10;99.90
31542;DHT22;18152;49.986;8.646;2023-10-08T11:32:25;21.00;99.90
31542;DHT22;18152;49.986;8.646;2023-10-08T11:34:58;21.00;99.90
31542;DHT22;18152;49.986;8.646;2023-10-08T11:37:45;21.30;99.90
31542;DHT22;18152;49.986;8.646;2023-10-08T11:40:22;21.30;99.90
31542;DHT22;18152;49.986;8.646;2023-10-08T11:42:54;21.20;99.90
31542;DHT22;18152;49.986;8.646;2023-10-08T11:45:22;21.50;99.90
31542;DHT22;18152;49.986;8.646;2023-10-08T11:47:52;21.60;99.90
31542;DHT22;18152;49.986;8.646;2023-10-08T11:50:26;21.90;99.90
31542;DHT22;18152;49.986;8.646;2023-10-08T11:53:01;22.20;99.90
31542;DHT22;18152;49.986;8.646;2023-10-08T11:55:29;22.70;99.90
31542;DHT22;18152;49.986;8.646;2023-10-08T11:57:55;22.50;99.90
31542;DHT22;18152;49.986;8.646;2023-10-08T12:00:21;22.60;99.90
31542;DHT22;18152;49.986;8.646;2023-10-08T12:02:52;22.50;99.90
31542;DHT22;18152;49.986;8.646;2023-10-08T12:05:23;22.50;99.90
31542;DHT22;18152;49.986;8.646;2023-10-08T12:07:51;22.50;99.90
31542;DHT22;18152;49.986;8.646;2023-10-08T12:10:20;22.60;99.90
31542;DHT22;18152;49.986;8.646;2023-10-08T12:12:52;23.00;99.90
31542;DHT22;18152;49.986;8.646;2023-10-08T12:15:24;23.30;99.90
31542;DHT22;18152;49.986;8.646;2023-10-08T12:18:00;23.00;99.90
31542;DHT22;18152;49.986;8.646;2023-10-08T12:20:41;23.20;99.90
31542;DHT22;18152;49.986;8.646;2023-10-08T12:23:11;23.00;99.90
31542;DHT22;18152;49.986;8.646;2023-10-08T12:25:37;23.20;99.90
31542;DHT22;18152;49.986;8.646;2023-10-08T12:28:03;22.90;99.90
31542;DHT22;18152;49.986;8.646;2023-10-08T12:30:32;22.80;99.90
31542;DHT22;18152;49.986;8.646;2023-10-08T12:33:00;22.80;99.90
31542;DHT22;18152;49.986;8.646;2023-10-08T12:35:27;23.90;99.90
31542;DHT22;18152;49.986;8.646;2023-10-08T12:37:54;24.50;99.90
31542;DHT22;18152;49.986;8.646;2023-10-08T12:40:20;25.10;99.90
31542;DHT22;18152;49.986;8.646;2023-10-08T12:42:52;24.80;99.20
31542;DHT22;18152;49.986;8.646;2023-10-08T12:45:18;25.20;99.90
31542;DHT22;18152;49.986;8.646;2023-10-08T12:47:52;25.80;99.50
31542;DHT22;18152;49.986;8.646;2023-10-08T12:50:19;26.60;97.30
31542;DHT22;18152;49.986;8.646;2023-10-08T12:53:11;26.80;98.10
31542;DHT22;18152;49.986;8.646;2023-10-08T12:55:43;26.00;98.10
31542;DHT22;18152;49.986;8.646;2023-10-08T12:58:09;25.90;97.50
31542;DHT22;18152;49.986;8.646;2023-10-08T13:00:38;26.30;98.50
31542;DHT22;18152;49.986;8.646;2023-10-08T13:03:04;26.70;98.10
31542;DHT22;18152;49.986;8.646;2023-10-08T13:05:32;27.00;98.10
31542;DHT22;18152;49.986;8.646;2023-10-08T13:07:59;27.00;96.30
31542;DHT22;18152;49.986;8.646;2023-10-08T13:10:35;26.90;96.40
31542;DHT22;18152;49.986;8.646;2023-10-08T13:13:00;27.10;95.30
31542;DHT22;18152;49.986;8.646;2023-10-08T13:15:26;26.90;95.70
31542;DHT22;18152;49.986;8.646;2023-10-08T13:17:52;26.60;95.80
31542;DHT22;18152;49.986;8.646;2023-10-08T13:20:18;26.30;95.70
31542;DHT22;18152;49.986;8.646;2023-10-08T13:22:43;26.30;95.80
31542;DHT22;18152;49.986;8.646;2023-10-08T13:25:10;26.40;95.80
31542;DHT22;18152;49.986;8.646;2023-10-08T13:27:38;26.80;94.40
31542;DHT22;18152;49.986;8.646;2023-10-08T13:30:07;26.70;95.10
31542;DHT22;18152;49.986;8.646;2023-10-08T13:32:36;27.30;94.00
31542;DHT22;18152;49.986;8.646;2023-10-08T13:35:05;27.30;95.30
31542;DHT22;18152;49.986;8.646;2023-10-08T13:37:36;27.30;96.20
31542;DHT22;18152;49.986;8.646;2023-10-08T13:40:02;27.10;94.70
31542;DHT22;18152;49.986;8.646;2023-10-08T13:42:28;27.30;95.60
31542;DHT22;18152;49.986;8.646;2023-10-08T13:44:55;27.70;93.10
31542;DHT22;18152;49.986;8.646;2023-10-08T13:47:23;27.30;93.20
31542;DHT22;18152;49.986;8.646;2023-10-08T13:49:52;26.90;92.70
31542;DHT22;18152;49.986;8.646;2023-10-08T13:52:19;27.10;94.20
31542;DHT22;18152;49.986;8.646;2023-10-08T13:54:46;26.90;93.60
31542;DHT22;18152;49.986;8.646;2023-10-08T13:57:20;26.70;94.30
31542;DHT22;18152;49.986;8.646;2023-10-08T13:59:49;26.40;94.50
31542;DHT22;18152;49.986;8.646;2023-10-08T14:02:16;25.50;99.50
31542;DHT22;18152;49.986;8.646;2023-10-08T14:04:44;25.50;98.00
31542;DHT22;18152;49.986;8.646;2023-10-08T14:07:11;25.20;98.20
31542;DHT22;18152;49.986;8.646;2023-10-08T14:09:43;24.40;99.10
31542;DHT22;18152;49.986;8.646;2023-10-08T14:12:11;23.60;99.40
31542;DHT22;18152;49.986;8.646;2023-10-08T14:14:38;23.30;99.90
31542;DHT22;18152;49.986;8.646;2023-10-08T14:17:09;23.20;99.90
31542;DHT22;18152;49.986;8.646;2023-10-08T14:19:40;23.00;99.90
31542;DHT22;18152;49.986;8.646;2023-10-08T14:22:14;22.60;99.90
31542;DHT22;18152;49.986;8.646;2023-10-08T14:24:40;22.30;99.90
31542;DHT22;18152;49.986;8.646;2023-10-08T14:27:06;22.00;99.90
31542;DHT22;18152;49.986;8.646;2023-10-08T14:29:41;21.50;99.90
31542;DHT22;18152;49.986;8.646;2023-10-08T14:32:09;21.20;99.90
31542;DHT22;18152;49.986;8.646;2023-10-08T14:34:36;21.20;99.90
31542;DHT22;18152;49.986;8.646;2023-10-08T14:37:21;21.20;99.90
31542;DHT22;18152;49.986;8.646;2023-10-08T14:40:06;21.00;99.90
31542;DHT22;18152;49.986;8.646;2023-10-08T14:42:50;20.80;99.90
31542;DHT22;18152;49.986;8.646;2023-10-08T14:45:21;20.60;99.90
31542;DHT22;18152;49.986;8.646;2023-10-08T14:47:48;20.50;99.90
31542;DHT22;18152;49.986;8.646;2023-10-08T14:50:14;20.40;99.90
31542;DHT22;18152;49.986;8.646;2023-10-08T14:52:45;20.40;99.90
31542;DHT22;18152;49.986;8.646;2023-10-08T14:55:12;20.40;99.90
31542;DHT22;18152;49.986;8.646;2023-10-08T14:57:38;20.40;99.90
31542;DHT22;18152;49.986;8.646;2023-10-08T15:00:05;20.40;99.90
31542;DHT22;18152;49.986;8.646;2023-10-08T15:02:31;20.40;99.90
31542;DHT22;18152;49.986;8.646;2023-10-08T15:04:58;20.40;99.90
31542;DHT22;18152;49.986;8.646;2023-10-08T15:07:26;20.40;99.90
31542;DHT22;18152;49.986;8.646;2023-10-08T15:09:53;20.60;99.90
31542;DHT22;18152;49.986;8.646;2023-10-08T15:12:28;20.50;99.90
31542;DHT22;18152;49.986;8.646;2023-10-08T15:14:56;20.40;99.90
31542;DHT22;18152;49.986;8.646;2023-10-08T15:17:22;20.30;99.90
31542;DHT22;18152;49.986;8.646;2023-10-08T15:19:48;20.20;99.90
31542;DHT22;18152;49.986;8.646;2023-10-08T15:22:13;20.20;99.90
31542;DHT22;18152;49.986;8.646;2023-10-08T15:24:39;20.10;99.90
31542;DHT22;18152;49.986;8.646;2023-10-08T15:27:06;19.90;99.90
31542;DHT22;18152;49.986;8.646;2023-10-08T15:29:31;19.80;99.90
31542;DHT22;18152;49.986;8.646;2023-10-08T15:31:58;19.90;99.90
31542;DHT22;18152;49.986;8.646;2023-10-08T15:34:24;20.00;99.90
31542;DHT22;18152;49.986;8.646;2023-10-08T15:36:52;19.80;99.90
31542;DHT22;18152;49.986;8.646;2023-10-08T15:39:17;19.80;99.90
31542;DHT22;18152;49.986;8.646;2023-10-08T15:41:49;19.80;99.90
31542;DHT22;18152;49.986;8.646;2023-10-08T15:44:15;19.80;99.90
31542;DHT22;18152;49.986;8.646;2023-10-08T15:46:43;19.80;99.90
31542;DHT22;18152;49.986;8.646;2023-10-08T15:49:09;19.60;99.90
31542;DHT22;18152;49.986;8.646;2023-10-08T15:51:35;19.40;99.90
31542;DHT22;18152;49.986;8.646;2023-10-08T15:54:01;19.50;99.90
31542;DHT22;18152;49.986;8.646;2023-10-08T15:56:27;19.40;99.90
31542;DHT22;18152;49.986;8.646;2023-10-08T15:58:56;19.30;99.90
31542;DHT22;18152;49.986;8.646;2023-10-08T16:01:24;19.20;99.90
31542;DHT22;18152;49.986;8.646;2023-10-08T16:03:53;19.20;99.90
31542;DHT22;18152;49.986;8.646;2023-10-08T16:06:19;19.10;99.90
31542;DHT22;18152;49.986;8.646;2023-10-08T16:08:45;19.00;99.90
31542;DHT22;18152;49.986;8.646;2023-10-08T16:11:12;18.90;99.90
31542;DHT22;18152;49.986;8.646;2023-10-08T16:13:38;18.80;99.90
31542;DHT22;18152;49.986;8.646;2023-10-08T16:16:05;18.70;99.90
31542;DHT22;18152;49.986;8.646;2023-10-08T16:18:34;18.70;99.90
31542;DHT22;18152;49.986;8.646;2023-10-08T16:20:59;18.60;99.90